createdAt,value
2018-03-02T00:00:06.206Z,965.27
2018-03-02T00:01:06.180Z,965.40
2018-03-02T00:02:06.178Z,965.35
2018-03-02T00:03:05.531Z,965.30
2018-03-02T00:04:06.270Z,965.44
2018-03-02T00:05:10.242Z,965.38
2018-03-02T00:06:05.885Z,965.36
2018-03-02T00:07:05.787Z,965.44
2018-03-02T00:08:05.521Z,965.33
2018-03-02T00:09:06.193Z,965.25
2018-03-02T00:10:05.414Z,965.36
2018-03-02T00:11:05.799Z,965.25
2018-03-02T00:12:06.348Z,965.44
2018-03-02T00:13:05.819Z,965.36
2018-03-02T00:14:06.230Z,965.44
2018-03-02T00:15:05.948Z,965.39
2018-03-02T00:16:05.436Z,965.34
2018-03-02T00:17:06.427Z,965.31
2018-03-02T00:18:06.207Z,965.34
2018-03-02T00:19:06.507Z,965.17
2018-03-02T00:20:05.840Z,965.20
2018-03-02T00:21:05.918Z,965.23
2018-03-02T00:22:06.240Z,965.28
2018-03-02T00:23:06.206Z,965.28
2018-03-02T00:24:05.517Z,965.20
2018-03-02T00:25:05.909Z,965.20
2018-03-02T00:26:05.794Z,965.31
2018-03-02T00:27:06.215Z,965.31
2018-03-02T00:28:05.761Z,965.18
2018-03-02T00:29:05.790Z,965.07
2018-03-02T00:30:06.882Z,965.15
2018-03-02T00:31:05.435Z,965.29
2018-03-02T00:32:05.912Z,965.12
2018-03-02T00:33:05.762Z,965.18
2018-03-02T00:34:05.827Z,965.13
2018-03-02T00:35:05.456Z,965.05
2018-03-02T00:36:05.417Z,965.05
2018-03-02T00:37:06.191Z,965.10
2018-03-02T00:38:05.546Z,964.99
2018-03-02T00:39:05.782Z,964.97
2018-03-02T00:40:05.890Z,965.16
2018-03-02T00:41:05.564Z,965.05
2018-03-02T00:42:06.185Z,964.99
2018-03-02T00:43:05.412Z,965.02
2018-03-02T00:44:06.485Z,965.08
2018-03-02T00:45:05.523Z,964.97
2018-03-02T00:46:05.791Z,965.02
2018-03-02T00:47:10.268Z,964.89
2018-03-02T00:48:05.479Z,965.03
2018-03-02T00:49:06.209Z,965.08
2018-03-02T00:50:06.502Z,965.19
2018-03-02T00:51:06.195Z,965.00
2018-03-02T00:52:06.984Z,965.05
2018-03-02T00:53:06.210Z,965.03
2018-03-02T00:54:06.212Z,964.97
2018-03-02T00:55:05.459Z,965.22
2018-03-02T00:56:06.197Z,965.17
2018-03-02T00:57:05.449Z,965.03
2018-03-02T00:58:05.878Z,964.90
2018-03-02T00:59:06.306Z,965.11
2018-03-02T01:00:05.830Z,964.87
2018-03-02T01:01:05.146Z,964.98
2018-03-02T01:02:10.197Z,964.98
2018-03-02T01:03:05.952Z,964.90
2018-03-02T01:04:05.788Z,964.84
2018-03-02T01:05:05.527Z,964.93
2018-03-02T01:06:05.882Z,964.98
2018-03-02T01:07:06.217Z,964.72
2018-03-02T01:08:10.775Z,964.74
2018-03-02T01:09:06.223Z,964.80
2018-03-02T01:10:05.458Z,964.90
2018-03-02T01:11:05.500Z,964.75
2018-03-02T01:12:06.243Z,964.90
2018-03-02T01:13:05.891Z,964.88
2018-03-02T01:14:06.162Z,964.80
2018-03-02T01:15:06.318Z,964.90
2018-03-02T01:16:06.116Z,964.88
2018-03-02T01:17:05.494Z,964.78
2018-03-02T01:18:05.855Z,964.70
2018-03-02T01:19:06.531Z,964.67
2018-03-02T01:20:05.436Z,964.88
2018-03-02T01:21:05.887Z,964.70
2018-03-02T01:22:06.248Z,964.88
2018-03-02T01:23:06.272Z,964.83
2018-03-02T01:24:05.497Z,964.64
2018-03-02T01:25:05.896Z,964.56
2018-03-02T01:26:06.301Z,964.83
2018-03-02T01:27:05.775Z,964.67
2018-03-02T01:28:05.996Z,964.62
2018-03-02T01:29:05.227Z,964.48
2018-03-02T01:30:10.409Z,964.70
2018-03-02T01:31:05.887Z,964.54
2018-03-02T01:32:05.902Z,964.65
2018-03-02T01:33:06.339Z,964.51
2018-03-02T01:34:05.892Z,964.38
2018-03-02T01:35:06.276Z,964.54
2018-03-02T01:36:05.506Z,964.43
2018-03-02T01:37:12.219Z,964.46
2018-03-02T01:38:05.834Z,964.46
2018-03-02T01:39:06.545Z,964.35
2018-03-02T01:40:06.256Z,964.46
2018-03-02T01:41:06.223Z,964.41
2018-03-02T01:42:05.504Z,964.44
2018-03-02T01:43:05.949Z,964.49
2018-03-02T01:44:05.875Z,964.35
2018-03-02T01:45:05.866Z,964.38
2018-03-02T01:46:06.393Z,964.33
2018-03-02T01:47:10.825Z,964.38
2018-03-02T01:48:10.783Z,964.41
2018-03-02T01:49:05.517Z,964.36
2018-03-02T01:50:05.965Z,964.22
2018-03-02T01:51:05.494Z,964.33
2018-03-02T01:52:05.521Z,964.44
2018-03-02T01:53:05.890Z,964.28
2018-03-02T01:54:05.874Z,964.17
2018-03-02T01:55:06.210Z,964.22
2018-03-02T01:56:06.145Z,964.20
2018-03-02T01:57:05.255Z,964.44
2018-03-02T01:58:05.595Z,964.33
2018-03-02T01:59:06.554Z,964.17
2018-03-02T02:00:06.024Z,964.12
2018-03-02T02:01:05.954Z,964.12
2018-03-02T02:02:05.873Z,963.98
2018-03-02T02:03:06.680Z,964.28
2018-03-02T02:04:05.900Z,964.20
2018-03-02T02:05:06.350Z,964.12
2018-03-02T02:06:05.897Z,964.07
2018-03-02T02:07:05.963Z,964.10
2018-03-02T02:08:06.375Z,963.99
2018-03-02T02:09:05.540Z,963.93
2018-03-02T02:10:06.244Z,963.96
2018-03-02T02:11:06.431Z,963.99
2018-03-02T02:12:05.595Z,964.07
2018-03-02T02:13:05.900Z,964.05
2018-03-02T02:14:06.245Z,964.10
2018-03-02T02:15:05.546Z,964.02
2018-03-02T02:16:06.566Z,964.02
2018-03-02T02:17:06.665Z,964.10
2018-03-02T02:18:05.924Z,964.05
2018-03-02T02:19:05.484Z,964.00
2018-03-02T02:20:06.013Z,963.82
2018-03-02T02:21:06.218Z,964.00
2018-03-02T02:22:05.513Z,963.91
2018-03-02T02:23:06.203Z,963.89
2018-03-02T02:24:05.563Z,963.87
2018-03-02T02:25:05.274Z,963.85
2018-03-02T02:26:05.555Z,964.03
2018-03-02T02:27:06.287Z,963.97
2018-03-02T02:28:05.556Z,963.79
2018-03-02T02:29:05.944Z,963.80
2018-03-02T02:30:06.015Z,963.92
2018-03-02T02:31:06.275Z,963.98
2018-03-02T02:32:10.436Z,963.83
2018-03-02T02:33:05.967Z,963.98
2018-03-02T02:34:05.937Z,963.90
2018-03-02T02:35:05.255Z,963.93
2018-03-02T02:36:05.551Z,963.90
2018-03-02T02:37:11.165Z,963.90
2018-03-02T02:38:05.844Z,963.86
2018-03-02T02:39:05.938Z,963.72
2018-03-02T02:40:06.077Z,963.83
2018-03-02T02:41:08.224Z,963.75
2018-03-02T02:42:05.255Z,963.86
2018-03-02T02:43:05.556Z,963.67
2018-03-02T02:44:05.595Z,963.89
2018-03-02T02:45:05.868Z,963.67
2018-03-02T02:46:06.382Z,963.84
2018-03-02T02:47:05.972Z,963.99
2018-03-02T02:48:10.872Z,963.78
2018-03-02T02:49:05.282Z,963.76
2018-03-02T02:50:05.649Z,963.82
2018-03-02T02:51:06.680Z,963.94
2018-03-02T02:52:06.051Z,963.68
2018-03-02T02:53:05.576Z,963.84
2018-03-02T02:54:05.608Z,963.91
2018-03-02T02:55:05.960Z,963.71
2018-03-02T02:56:10.114Z,963.84
2018-03-02T02:57:05.557Z,963.82
2018-03-02T02:58:05.673Z,963.74
2018-03-02T02:59:05.938Z,963.79
2018-03-02T03:00:05.950Z,963.89
2018-03-02T03:01:06.347Z,963.82
2018-03-02T03:02:05.576Z,963.82
2018-03-02T03:03:05.652Z,963.63
2018-03-02T03:04:05.958Z,963.63
2018-03-02T03:05:05.886Z,963.66
2018-03-02T03:06:05.585Z,963.66
2018-03-02T03:07:05.917Z,963.69
2018-03-02T03:08:07.066Z,963.74
2018-03-02T03:09:06.037Z,963.63
2018-03-02T03:10:05.579Z,963.61
2018-03-02T03:11:05.718Z,963.64
2018-03-02T03:12:05.350Z,963.64
2018-03-02T03:13:07.270Z,963.58
2018-03-02T03:14:05.986Z,963.50
2018-03-02T03:15:06.267Z,963.67
2018-03-02T03:16:05.286Z,963.56
2018-03-02T03:17:05.625Z,963.51
2018-03-02T03:18:05.941Z,963.32
2018-03-02T03:19:05.267Z,963.37
2018-03-02T03:20:05.672Z,963.48
2018-03-02T03:21:05.972Z,963.29
2018-03-02T03:22:06.036Z,963.51
2018-03-02T03:23:06.289Z,963.43
2018-03-02T03:24:05.596Z,963.46
2018-03-02T03:25:05.989Z,963.46
2018-03-02T03:26:06.672Z,963.40
2018-03-02T03:27:06.407Z,963.43
2018-03-02T03:28:05.603Z,963.51
2018-03-02T03:29:06.019Z,963.32
2018-03-02T03:30:10.194Z,963.51
2018-03-02T03:31:05.609Z,963.43
2018-03-02T03:32:05.977Z,963.57
2018-03-02T03:33:05.603Z,963.43
2018-03-02T03:34:05.663Z,963.46
2018-03-02T03:35:06.005Z,963.43
2018-03-02T03:36:10.095Z,963.35
2018-03-02T03:37:06.760Z,963.36
2018-03-02T03:38:05.639Z,963.63
2018-03-02T03:39:06.765Z,963.49
2018-03-02T03:40:05.585Z,963.46
2018-03-02T03:41:05.285Z,963.46
2018-03-02T03:42:10.969Z,963.30
2018-03-02T03:43:05.701Z,963.44
2018-03-02T03:44:06.128Z,963.47
2018-03-02T03:45:05.952Z,963.47
2018-03-02T03:46:05.971Z,963.55
2018-03-02T03:47:06.016Z,963.47
2018-03-02T03:48:06.804Z,963.39
2018-03-02T03:49:05.337Z,963.39
2018-03-02T03:50:06.479Z,963.31
2018-03-02T03:51:06.034Z,963.42
2018-03-02T03:52:06.002Z,963.39
2018-03-02T03:53:10.677Z,963.34
2018-03-02T03:54:06.068Z,963.47
2018-03-02T03:55:05.328Z,963.15
2018-03-02T03:56:05.905Z,963.42
2018-03-02T03:57:05.574Z,963.42
2018-03-02T03:58:06.720Z,963.31
2018-03-02T03:59:06.001Z,963.20
2018-03-02T04:00:06.010Z,963.20
2018-03-02T04:01:05.234Z,963.10
2018-03-02T04:02:05.274Z,963.28
2018-03-02T04:03:10.472Z,963.28
2018-03-02T04:04:05.669Z,963.23
2018-03-02T04:05:06.065Z,963.29
2018-03-02T04:06:07.108Z,963.20
2018-03-02T04:07:05.249Z,963.18
2018-03-02T04:08:05.706Z,963.07
2018-03-02T04:09:05.730Z,963.21
2018-03-02T04:10:06.677Z,963.21
2018-03-02T04:11:06.369Z,963.18
2018-03-02T04:12:06.067Z,963.10
2018-03-02T04:13:05.266Z,963.15
2018-03-02T04:14:05.911Z,963.18
2018-03-02T04:15:05.628Z,963.21
2018-03-02T04:16:05.661Z,963.13
2018-03-02T04:17:06.064Z,963.26
2018-03-02T04:18:05.623Z,963.18
2018-03-02T04:19:06.083Z,963.34
2018-03-02T04:20:05.553Z,963.13
2018-03-02T04:21:06.013Z,963.18
2018-03-02T04:22:05.297Z,963.05
2018-03-02T04:23:05.654Z,963.05
2018-03-02T04:24:06.121Z,963.21
2018-03-02T04:25:05.601Z,963.13
2018-03-02T04:26:05.654Z,963.16
2018-03-02T04:27:06.127Z,963.21
2018-03-02T04:28:05.618Z,963.11
2018-03-02T04:29:06.072Z,963.16
2018-03-02T04:30:05.612Z,963.11
2018-03-02T04:31:06.066Z,963.05
2018-03-02T04:32:06.502Z,963.08
2018-03-02T04:33:06.044Z,963.13
2018-03-02T04:34:05.300Z,963.24
2018-03-02T04:35:05.366Z,963.08
2018-03-02T04:36:06.038Z,963.05
2018-03-02T04:37:05.378Z,963.24
2018-03-02T04:38:05.630Z,963.08
2018-03-02T04:39:05.715Z,963.08
2018-03-02T04:40:06.060Z,963.08
2018-03-02T04:41:05.255Z,963.03
2018-03-02T04:42:05.303Z,963.03
2018-03-02T04:43:05.727Z,963.00
2018-03-02T04:44:05.683Z,963.00
2018-03-02T04:45:05.662Z,963.03
2018-03-02T04:46:06.747Z,962.95
2018-03-02T04:47:06.135Z,962.92
2018-03-02T04:48:05.292Z,963.03
2018-03-02T04:49:05.296Z,962.89
2018-03-02T04:50:05.711Z,962.97
2018-03-02T04:51:05.714Z,962.84
2018-03-02T04:52:06.055Z,962.95
2018-03-02T04:53:05.313Z,962.87
2018-03-02T04:54:05.998Z,962.95
2018-03-02T04:55:05.705Z,962.98
2018-03-02T04:56:06.368Z,962.82
2018-03-02T04:57:07.252Z,962.90
2018-03-02T04:58:06.041Z,962.90
2018-03-02T04:59:05.803Z,962.85
2018-03-02T05:00:06.043Z,962.85
2018-03-02T05:01:05.334Z,962.85
2018-03-02T05:02:05.714Z,962.82
2018-03-02T05:03:06.122Z,962.85
2018-03-02T05:04:05.715Z,962.79
2018-03-02T05:05:05.713Z,962.85
2018-03-02T05:06:06.103Z,962.63
2018-03-02T05:07:06.009Z,962.77
2018-03-02T05:08:05.339Z,962.69
2018-03-02T05:09:07.226Z,962.79
2018-03-02T05:10:05.661Z,962.69
2018-03-02T05:11:05.960Z,962.55
2018-03-02T05:12:05.732Z,962.58
2018-03-02T05:13:05.335Z,962.71
2018-03-02T05:14:05.996Z,962.53
2018-03-02T05:15:05.694Z,962.53
2018-03-02T05:16:06.040Z,962.58
2018-03-02T05:17:05.439Z,962.50
2018-03-02T05:18:06.774Z,962.50
2018-03-02T05:19:06.102Z,962.66
2018-03-02T05:20:05.362Z,962.58
2018-03-02T05:21:06.813Z,962.37
2018-03-02T05:22:06.529Z,962.63
2018-03-02T05:23:05.301Z,962.46
2018-03-02T05:24:05.616Z,962.50
2018-03-02T05:25:06.465Z,962.32
2018-03-02T05:26:06.105Z,962.35
2018-03-02T05:27:05.449Z,962.43
2018-03-02T05:28:11.003Z,962.43
2018-03-02T05:29:11.152Z,962.30
2018-03-02T05:30:06.160Z,962.32
2018-03-02T05:31:05.331Z,962.38
2018-03-02T05:32:05.700Z,962.30
2018-03-02T05:33:05.813Z,962.38
2018-03-02T05:34:06.076Z,962.46
2018-03-02T05:35:06.084Z,962.43
2018-03-02T05:36:06.472Z,962.50
2018-03-02T05:37:06.150Z,962.35
2018-03-02T05:38:05.747Z,962.43
2018-03-02T05:39:06.250Z,962.30
2018-03-02T05:40:05.725Z,962.48
2018-03-02T05:41:10.740Z,962.41
2018-03-02T05:42:06.109Z,962.59
2018-03-02T05:43:05.767Z,962.61
2018-03-02T05:44:06.399Z,962.48
2018-03-02T05:45:06.001Z,962.53
2018-03-02T05:46:06.141Z,962.48
2018-03-02T05:47:05.384Z,962.46
2018-03-02T05:48:05.673Z,962.56
2018-03-02T05:49:06.126Z,962.46
2018-03-02T05:50:05.777Z,962.38
2018-03-02T05:51:07.346Z,962.43
2018-03-02T05:52:06.107Z,962.38
2018-03-02T05:53:05.333Z,962.27
2018-03-02T05:54:05.457Z,962.35
2018-03-02T05:55:06.096Z,962.14
2018-03-02T05:56:06.150Z,962.35
2018-03-02T05:57:05.451Z,962.23
2018-03-02T05:58:05.792Z,962.14
2018-03-02T05:59:06.943Z,962.27
2018-03-02T06:00:07.328Z,962.14
2018-03-02T06:01:05.779Z,962.16
2018-03-02T06:02:06.038Z,962.06
2018-03-02T06:03:11.116Z,962.08
2018-03-02T06:04:05.747Z,962.21
2018-03-02T06:05:06.020Z,962.17
2018-03-02T06:06:06.125Z,962.32
2018-03-02T06:07:05.402Z,962.23
2018-03-02T06:08:05.792Z,962.21
2018-03-02T06:09:05.765Z,962.21
2018-03-02T06:10:06.221Z,962.34
2018-03-02T06:11:05.718Z,962.29
2018-03-02T06:12:05.785Z,962.23
2018-03-02T06:13:10.756Z,962.31
2018-03-02T06:14:05.786Z,962.19
2018-03-02T06:15:06.234Z,962.18
2018-03-02T06:16:05.415Z,962.10
2018-03-02T06:17:05.434Z,962.23
2018-03-02T06:18:05.807Z,962.23
2018-03-02T06:19:07.248Z,962.18
2018-03-02T06:20:06.124Z,962.10
2018-03-02T06:21:05.385Z,962.12
2018-03-02T06:22:05.396Z,962.12
2018-03-02T06:23:05.474Z,962.15
2018-03-02T06:24:05.387Z,962.12
2018-03-02T06:25:05.470Z,962.09
2018-03-02T06:26:05.772Z,962.07
2018-03-02T06:27:05.797Z,962.07
2018-03-02T06:28:06.135Z,962.06
2018-03-02T06:29:05.402Z,962.17
2018-03-02T06:30:05.375Z,962.01
2018-03-02T06:31:05.455Z,962.01
2018-03-02T06:32:05.467Z,962.09
2018-03-02T06:33:06.043Z,962.11
2018-03-02T06:34:06.157Z,961.97
2018-03-02T06:35:05.425Z,962.08
2018-03-02T06:36:05.801Z,962.00
2018-03-02T06:37:06.630Z,961.97
2018-03-02T06:38:05.507Z,962.05
2018-03-02T06:39:06.112Z,962.19
2018-03-02T06:40:06.041Z,962.16
2018-03-02T06:41:05.826Z,962.23
2018-03-02T06:42:06.553Z,961.97
2018-03-02T06:43:05.815Z,962.23
2018-03-02T06:44:05.858Z,962.23
2018-03-02T06:45:05.460Z,962.39
2018-03-02T06:46:05.560Z,962.13
2018-03-02T06:47:06.255Z,962.15
2018-03-02T06:48:05.848Z,962.18
2018-03-02T06:49:06.549Z,962.18
2018-03-02T06:50:05.457Z,962.33
2018-03-02T06:51:05.503Z,962.01
2018-03-02T06:52:05.827Z,962.15
2018-03-02T06:53:06.471Z,962.07
2018-03-02T06:54:06.059Z,962.04
2018-03-02T06:55:06.231Z,961.90
2018-03-02T06:56:05.790Z,962.03
2018-03-02T06:57:05.485Z,961.90
2018-03-02T06:58:05.825Z,962.14
2018-03-02T06:59:06.162Z,961.97
2018-03-02T07:00:05.478Z,962.00
2018-03-02T07:01:05.478Z,961.83
2018-03-02T07:02:06.504Z,961.89
2018-03-02T07:03:05.846Z,961.91
2018-03-02T07:04:05.884Z,961.91
2018-03-02T07:05:06.238Z,961.90
2018-03-02T07:06:05.423Z,961.98
2018-03-02T07:07:05.730Z,961.95
2018-03-02T07:08:06.596Z,962.14
2018-03-02T07:09:05.878Z,962.08
2018-03-02T07:10:05.813Z,962.00
2018-03-02T07:11:05.833Z,962.05
2018-03-02T07:12:06.187Z,961.88
2018-03-02T07:13:05.433Z,961.82
2018-03-02T07:14:06.209Z,961.74
2018-03-02T07:15:11.061Z,961.76
2018-03-02T07:16:05.517Z,961.79
2018-03-02T07:17:05.839Z,961.65
2018-03-02T07:18:05.732Z,961.65
2018-03-02T07:19:06.246Z,961.84
2018-03-02T07:20:06.220Z,961.73
2018-03-02T07:21:05.467Z,961.76
2018-03-02T07:22:06.119Z,961.62
2018-03-02T07:23:05.459Z,961.51
2018-03-02T07:24:05.553Z,961.46
2018-03-02T07:25:06.192Z,961.68
2018-03-02T07:26:05.541Z,961.46
2018-03-02T07:27:05.804Z,961.57
2018-03-02T07:28:06.583Z,961.41
2018-03-02T07:29:10.711Z,961.54
2018-03-02T07:30:06.567Z,961.65
2018-03-02T07:31:06.591Z,961.38
2018-03-02T07:32:05.894Z,961.54
2018-03-02T07:33:05.462Z,961.68
2018-03-02T07:34:06.226Z,961.60
2018-03-02T07:35:06.266Z,961.43
2018-03-02T07:36:05.813Z,961.65
2018-03-02T07:37:06.162Z,961.52
2018-03-02T07:38:05.408Z,961.43
2018-03-02T07:39:06.235Z,961.49
2018-03-02T07:40:10.794Z,961.38
2018-03-02T07:41:05.462Z,961.24
2018-03-02T07:42:05.554Z,961.27
2018-03-02T07:43:10.365Z,961.46
2018-03-02T07:44:05.906Z,961.22
2018-03-02T07:45:05.548Z,961.24
2018-03-02T07:46:05.921Z,961.19
2018-03-02T07:47:06.202Z,961.27
2018-03-02T07:48:06.212Z,961.54
2018-03-02T07:49:05.474Z,961.24
2018-03-02T07:50:05.838Z,961.43
2018-03-02T07:51:06.224Z,961.21
2018-03-02T07:52:05.902Z,961.40
2018-03-02T07:53:06.269Z,961.29
2018-03-02T07:54:05.889Z,961.21
2018-03-02T07:55:05.208Z,961.34
2018-03-02T07:56:05.869Z,961.23
2018-03-02T07:57:05.413Z,961.26
2018-03-02T07:58:05.879Z,961.34
2018-03-02T07:59:05.492Z,961.23
2018-03-02T08:00:06.220Z,961.06
2018-03-02T08:01:05.494Z,961.06
2018-03-02T08:02:05.418Z,961.11
2018-03-02T08:03:05.798Z,961.22
2018-03-02T08:04:10.747Z,961.24
2018-03-02T08:05:05.909Z,961.13
2018-03-02T08:06:05.491Z,961.18
2018-03-02T08:07:05.934Z,961.31
2018-03-02T08:08:06.217Z,961.11
2018-03-02T08:09:10.354Z,961.19
2018-03-02T08:10:05.877Z,961.18
2018-03-02T08:11:05.918Z,961.15
2018-03-02T08:12:10.622Z,961.09
2018-03-02T08:13:05.867Z,961.14
2018-03-02T08:14:06.218Z,961.33
2018-03-02T08:15:05.547Z,961.35
2018-03-02T08:16:06.551Z,961.27
2018-03-02T08:17:06.339Z,961.13
2018-03-02T08:18:05.980Z,961.10
2018-03-02T08:19:05.889Z,961.18
2018-03-02T08:20:06.157Z,961.18
2018-03-02T08:21:05.674Z,961.02
2018-03-02T08:22:06.185Z,961.04
2018-03-02T08:23:05.481Z,961.21
2018-03-02T08:24:05.956Z,961.15
2018-03-02T08:25:05.900Z,961.01
2018-03-02T08:26:06.610Z,961.04
2018-03-02T08:27:05.938Z,961.18
2018-03-02T08:28:05.178Z,961.15
2018-03-02T08:29:11.316Z,961.09
2018-03-02T08:30:05.599Z,961.15
2018-03-02T08:31:06.274Z,961.09
2018-03-02T08:32:06.276Z,961.20
2018-03-02T08:33:05.476Z,961.12
2018-03-02T08:34:10.909Z,961.11
2018-03-02T08:35:10.451Z,961.14
2018-03-02T08:36:10.749Z,961.22
2018-03-02T08:37:06.337Z,961.08
2018-03-02T08:38:06.279Z,961.11
2018-03-02T08:39:11.644Z,961.10
2018-03-02T08:40:10.775Z,961.10
2018-03-02T08:41:05.477Z,961.02
2018-03-02T08:42:05.512Z,961.07
2018-03-02T08:43:06.642Z,961.21
2018-03-02T08:44:05.830Z,960.99
2018-03-02T08:45:05.923Z,961.23
2018-03-02T08:46:06.232Z,961.20
2018-03-02T08:47:05.620Z,961.07
2018-03-02T08:48:07.343Z,961.36
2018-03-02T08:49:05.933Z,961.09
2018-03-02T08:50:06.595Z,960.93
2018-03-02T08:51:05.540Z,961.06
2018-03-02T08:52:05.152Z,961.11
2018-03-02T08:53:06.665Z,961.06
2018-03-02T08:54:06.224Z,961.16
2018-03-02T08:55:06.953Z,960.97
2018-03-02T08:56:05.506Z,961.02
2018-03-02T08:57:05.600Z,961.16
2018-03-02T08:58:06.212Z,961.10
2018-03-02T08:59:05.226Z,961.10
2018-03-02T09:00:06.248Z,961.15
2018-03-02T09:01:05.497Z,961.06
2018-03-02T09:02:05.548Z,961.06
2018-03-02T09:03:05.943Z,961.03
2018-03-02T09:04:05.266Z,961.08
2018-03-02T09:05:05.684Z,961.05
2018-03-02T09:06:06.334Z,960.86
2018-03-02T09:07:06.306Z,961.02
2018-03-02T09:08:06.286Z,960.93
2018-03-02T09:09:06.655Z,960.93
2018-03-02T09:10:06.331Z,960.92
2018-03-02T09:11:05.459Z,960.87
2018-03-02T09:12:05.541Z,960.81
2018-03-02T09:13:05.529Z,960.78
2018-03-02T09:14:05.931Z,960.80
2018-03-02T09:15:06.342Z,960.75
2018-03-02T09:16:05.914Z,960.87
2018-03-02T09:17:06.276Z,960.78
2018-03-02T09:18:05.625Z,960.86
2018-03-02T09:19:05.943Z,960.76
2018-03-02T09:20:06.009Z,960.78
2018-03-02T09:21:06.020Z,960.87
2018-03-02T09:22:06.384Z,960.77
2018-03-02T09:23:05.425Z,960.83
2018-03-02T09:24:05.544Z,960.86
2018-03-02T09:25:05.973Z,960.79
2018-03-02T09:26:06.257Z,960.69
2018-03-02T09:27:05.590Z,960.77
2018-03-02T09:28:05.322Z,960.68
2018-03-02T09:29:05.534Z,960.76
2018-03-02T09:30:06.523Z,960.70
2018-03-02T09:31:06.264Z,960.56
2018-03-02T09:32:06.001Z,960.69
2018-03-02T09:33:05.283Z,960.68
2018-03-02T09:34:05.335Z,960.54
2018-03-02T09:35:05.943Z,960.68
2018-03-02T09:36:05.591Z,960.56
2018-03-02T09:37:06.226Z,960.56
2018-03-02T09:38:06.244Z,960.61
2018-03-02T09:39:07.147Z,960.50
2018-03-02T09:40:10.542Z,960.66
2018-03-02T09:41:06.354Z,960.41
2018-03-02T09:42:05.262Z,960.41
2018-03-02T09:43:05.951Z,960.48
2018-03-02T09:44:06.297Z,960.40
2018-03-02T09:45:05.585Z,960.42
2018-03-02T09:46:05.947Z,960.47
2018-03-02T09:47:05.690Z,960.35
2018-03-02T09:48:06.294Z,960.46
2018-03-02T09:49:05.983Z,960.51
2018-03-02T09:50:05.503Z,960.37
2018-03-02T09:51:06.397Z,960.39
2018-03-02T09:52:05.629Z,960.47
2018-03-02T09:53:06.333Z,960.25
2018-03-02T09:54:05.316Z,960.41
2018-03-02T09:55:05.254Z,960.33
2018-03-02T09:56:06.692Z,960.41
2018-03-02T09:57:05.563Z,960.40
2018-03-02T09:58:05.896Z,960.40
2018-03-02T09:59:05.552Z,960.48
2018-03-02T10:00:06.102Z,960.42
2018-03-02T10:01:05.567Z,960.28
2018-03-02T10:02:06.276Z,960.27
2018-03-02T10:03:05.580Z,960.14
2018-03-02T10:04:05.939Z,960.24
2018-03-02T10:05:06.586Z,960.35
2018-03-02T10:06:05.645Z,960.17
2018-03-02T10:07:06.391Z,960.36
2018-03-02T10:08:05.675Z,960.20
2018-03-02T10:09:06.331Z,960.22
2018-03-02T10:10:05.606Z,960.09
2018-03-02T10:11:05.934Z,960.25
2018-03-02T10:12:05.933Z,960.31
2018-03-02T10:13:05.962Z,960.03
2018-03-02T10:14:06.054Z,960.14
2018-03-02T10:15:05.616Z,960.17
2018-03-02T10:16:05.987Z,960.14
2018-03-02T10:17:05.878Z,960.08
2018-03-02T10:18:07.241Z,960.11
2018-03-02T10:19:05.628Z,960.02
2018-03-02T10:20:06.108Z,960.07
2018-03-02T10:21:05.656Z,960.13
2018-03-02T10:22:05.902Z,960.15
2018-03-02T10:23:06.351Z,960.15
2018-03-02T10:24:05.674Z,960.25
2018-03-02T10:25:05.232Z,960.27
2018-03-02T10:26:05.620Z,959.97
2018-03-02T10:27:05.588Z,960.13
2018-03-02T10:28:06.303Z,960.19
2018-03-02T10:29:05.613Z,960.21
2018-03-02T10:30:05.732Z,960.16
2018-03-02T10:31:06.371Z,960.26
2018-03-02T10:32:05.643Z,960.02
2018-03-02T10:33:05.987Z,960.04
2018-03-02T10:34:06.382Z,960.15
2018-03-02T10:35:05.709Z,960.01
2018-03-02T10:36:06.051Z,960.31
2018-03-02T10:37:05.663Z,960.11
2018-03-02T10:38:06.068Z,960.02
2018-03-02T10:39:05.232Z,960.10
2018-03-02T10:40:05.314Z,959.94
2018-03-02T10:41:05.630Z,960.07
2018-03-02T10:42:05.370Z,960.18
2018-03-02T10:43:05.608Z,960.01
2018-03-02T10:44:06.063Z,960.01
2018-03-02T10:45:05.247Z,960.03
2018-03-02T10:46:05.249Z,960.15
2018-03-02T10:47:06.033Z,960.09
2018-03-02T10:48:05.635Z,959.95
2018-03-02T10:49:05.988Z,960.09
2018-03-02T10:50:06.094Z,960.09
2018-03-02T10:51:05.612Z,960.11
2018-03-02T10:52:06.067Z,960.05
2018-03-02T10:53:05.278Z,959.99
2018-03-02T10:54:05.538Z,960.04
2018-03-02T10:55:06.535Z,960.13
2018-03-02T10:56:05.999Z,959.99
2018-03-02T10:57:05.355Z,959.98
2018-03-02T10:58:06.055Z,959.92
2018-03-02T10:59:06.083Z,959.87
2018-03-02T11:00:05.632Z,959.95
2018-03-02T11:01:05.429Z,959.92
2018-03-02T11:02:05.977Z,959.86
2018-03-02T11:03:06.074Z,959.97
2018-03-02T11:04:06.336Z,959.94
2018-03-02T11:05:05.704Z,960.04
2018-03-02T11:06:06.719Z,959.90
2018-03-02T11:07:06.405Z,959.98
2018-03-02T11:08:06.691Z,959.95
2018-03-02T11:09:06.042Z,959.90
2018-03-02T11:10:05.725Z,959.89
2018-03-02T11:11:05.375Z,959.86
2018-03-02T11:12:06.117Z,959.92
2018-03-02T11:13:06.318Z,959.83
2018-03-02T11:14:05.752Z,959.78
2018-03-02T11:15:06.040Z,959.78
2018-03-02T11:16:06.136Z,959.56
2018-03-02T11:17:05.711Z,959.75
2018-03-02T11:18:06.017Z,959.83
2018-03-02T11:19:10.602Z,959.91
2018-03-02T11:20:05.671Z,959.85
2018-03-02T11:21:06.394Z,959.90
2018-03-02T11:22:06.137Z,959.79
2018-03-02T11:23:05.567Z,959.81
2018-03-02T11:24:05.695Z,959.70
2018-03-02T11:25:05.775Z,959.87
2018-03-02T11:26:05.334Z,959.63
2018-03-02T11:27:05.667Z,959.78
2018-03-02T11:28:06.401Z,959.60
2018-03-02T11:29:06.071Z,959.65
2018-03-02T11:30:05.272Z,959.54
2018-03-02T11:31:05.657Z,959.75
2018-03-02T11:32:10.935Z,959.62
2018-03-02T11:33:05.307Z,959.56
2018-03-02T11:34:05.707Z,959.67
2018-03-02T11:35:06.104Z,959.52
2018-03-02T11:36:06.504Z,959.61
2018-03-02T11:37:05.762Z,959.55
2018-03-02T11:38:06.086Z,959.76
2018-03-02T11:39:11.302Z,959.46
2018-03-02T11:40:06.067Z,959.46
2018-03-02T11:41:05.766Z,959.43
2018-03-02T11:42:06.060Z,959.45
2018-03-02T11:43:05.270Z,959.72
2018-03-02T11:44:05.689Z,959.53
2018-03-02T11:45:06.048Z,959.45
2018-03-02T11:46:06.517Z,959.53
2018-03-02T11:47:05.333Z,959.66
2018-03-02T11:48:05.974Z,959.41
2018-03-02T11:49:05.822Z,959.44
2018-03-02T11:50:05.320Z,959.38
2018-03-02T11:51:05.766Z,959.40
2018-03-02T11:52:06.200Z,959.32
2018-03-02T11:53:06.049Z,959.37
2018-03-02T11:54:06.080Z,959.26
2018-03-02T11:55:05.320Z,959.26
2018-03-02T11:56:06.067Z,959.20
2018-03-02T11:57:05.408Z,959.20
2018-03-02T11:58:05.333Z,959.23
2018-03-02T11:59:05.394Z,959.33
2018-03-02T12:00:11.104Z,959.16
2018-03-02T12:01:06.332Z,959.24
2018-03-02T12:02:05.599Z,959.32
2018-03-02T12:03:05.694Z,959.40
2018-03-02T12:04:06.000Z,959.18
2018-03-02T12:05:06.100Z,959.16
2018-03-02T12:06:06.375Z,959.34
2018-03-02T12:07:05.616Z,959.28
2018-03-02T12:08:05.762Z,959.23
2018-03-02T12:09:06.039Z,959.17
2018-03-02T12:10:05.415Z,959.27
2018-03-02T12:11:06.509Z,959.24
2018-03-02T12:12:05.327Z,959.16
2018-03-02T12:13:06.409Z,959.06
2018-03-02T12:14:05.652Z,959.19
2018-03-02T12:15:05.813Z,959.16
2018-03-02T12:16:06.528Z,959.06
2018-03-02T12:17:10.999Z,959.22
2018-03-02T12:18:06.428Z,959.09
2018-03-02T12:19:05.784Z,959.03
2018-03-02T12:20:06.092Z,959.06
2018-03-02T12:21:06.167Z,959.09
2018-03-02T12:22:06.011Z,959.16
2018-03-02T12:23:05.607Z,959.05
2018-03-02T12:24:05.716Z,959.18
2018-03-02T12:25:05.715Z,959.08
2018-03-02T12:26:06.033Z,959.02
2018-03-02T12:27:06.090Z,958.96
2018-03-02T12:28:05.815Z,959.13